createdAt,value
2022-10-11T00:01:01.386Z,-139.23
2022-10-11T00:03:28.901Z,-139.23
2022-10-11T00:06:54.876Z,-139.23
2022-10-11T00:10:21.327Z,-139.23
2022-10-11T00:13:07.067Z,-139.23
2022-10-11T00:15:36.612Z,-139.23
2022-10-11T00:18:22.089Z,-139.23
2022-10-11T00:21:03.464Z,-139.23
2022-10-11T00:23:32.293Z,-139.23
2022-10-11T00:26:00.326Z,-139.23
2022-10-11T00:29:22.166Z,-139.23
2022-10-11T00:31:50.930Z,-139.23
2022-10-11T00:34:18.364Z,-139.23
2022-10-11T00:36:46.027Z,-139.23
2022-10-11T00:39:14.594Z,-139.23
2022-10-11T00:41:50.102Z,-139.23
2022-10-11T00:44:20.685Z,-139.23
2022-10-11T00:46:56.161Z,-139.23
2022-10-11T00:49:34.091Z,-139.23
2022-10-11T00:52:04.536Z,-139.23
2022-10-11T00:54:35.648Z,-139.23
2022-10-11T00:57:06.628Z,-139.23
2022-10-11T00:59:39.289Z,-139.23
2022-10-11T01:02:20.488Z,-139.23
2022-10-11T01:04:57.315Z,-139.23
2022-10-11T01:08:33.021Z,-139.23
2022-10-11T01:11:06.101Z,-139.23
2022-10-11T01:13:41.372Z,-139.23
2022-10-11T01:16:15.158Z,-139.23
2022-10-11T01:18:50.780Z,23.31
2022-10-11T01:21:32.062Z,-139.23
2022-10-11T01:24:20.665Z,-139.23
2022-10-11T01:27:20.645Z,5.77
2022-10-11T01:29:58.211Z,-139.23
2022-10-11T01:32:35.524Z,-139.23
2022-10-11T01:35:11.467Z,-139.23
2022-10-11T01:37:42.022Z,-139.23
2022-10-11T01:40:14.855Z,-139.23
2022-10-11T01:42:43.764Z,-139.23
2022-10-11T01:45:15.964Z,-139.23
2022-10-11T01:47:45.697Z,-139.23
2022-10-11T01:50:39.365Z,-139.23
2022-10-11T01:53:23.748Z,-139.23
2022-10-11T01:55:55.334Z,-139.23
2022-10-11T01:58:36.851Z,-139.23
2022-10-11T02:01:13.386Z,-139.23
2022-10-11T02:03:49.278Z,-139.23
2022-10-11T02:06:23.145Z,-139.23
2022-10-11T02:08:58.410Z,-139.23
2022-10-11T02:11:28.641Z,-139.23
2022-10-11T02:14:01.404Z,-139.23
2022-10-11T02:16:33.886Z,-139.23
2022-10-11T02:19:06.978Z,-139.23
2022-10-11T02:21:35.268Z,-139.23
2022-10-11T02:24:07.556Z,-139.23
2022-10-11T02:26:36.055Z,-139.23
2022-10-11T02:29:08.711Z,-139.23
2022-10-11T02:31:37.050Z,-139.23
2022-10-11T02:34:12.571Z,-139.23
2022-10-11T02:36:55.433Z,-139.23
2022-10-11T02:39:28.099Z,-139.23
2022-10-11T02:42:00.582Z,-139.23
2022-10-11T02:44:33.393Z,-139.23
2022-10-11T02:47:01.842Z,-139.23
2022-10-11T02:49:32.881Z,-139.23
2022-10-11T02:52:00.491Z,-139.23
2022-10-11T02:54:28.175Z,-139.23
2022-10-11T02:56:55.619Z,-139.23
2022-10-11T02:59:23.270Z,-139.23
2022-10-11T03:01:50.761Z,-139.23
2022-10-11T03:04:18.259Z,-139.23
2022-10-11T03:06:47.039Z,-139.23
2022-10-11T03:09:14.484Z,-139.23
2022-10-11T03:11:41.914Z,-139.23
2022-10-11T03:14:09.536Z,-139.23
2022-10-11T03:16:36.964Z,-139.23
2022-10-11T03:19:04.696Z,-139.23
2022-10-11T03:21:32.108Z,-139.23
2022-10-11T03:24:00.891Z,-139.23
2022-10-11T03:26:28.407Z,-139.23
2022-10-11T03:28:55.987Z,-139.23
2022-10-11T03:31:23.657Z,-139.23
2022-10-11T03:33:51.113Z,-139.23
2022-10-11T03:36:18.659Z,-139.23
2022-10-11T03:38:46.086Z,-139.23
2022-10-11T03:41:14.865Z,-139.23
2022-10-11T03:43:42.323Z,-139.23
2022-10-11T03:46:09.772Z,-139.23
2022-10-11T03:48:37.423Z,-139.23
2022-10-11T03:51:04.896Z,-139.23
2022-10-11T03:53:32.425Z,-139.23
2022-10-11T03:56:03.398Z,-139.23
2022-10-11T03:58:34.923Z,-139.23
2022-10-11T04:01:02.412Z,-139.23
2022-10-11T04:03:29.872Z,-139.23
2022-10-11T04:05:57.365Z,-139.23
2022-10-11T04:08:24.895Z,-139.23
2022-10-11T04:10:52.352Z,-139.23
2022-10-11T04:13:19.805Z,-139.23
2022-10-11T04:15:48.691Z,-139.23
2022-10-11T04:18:16.147Z,-139.23
2022-10-11T04:20:43.711Z,-139.23
2022-10-11T04:23:11.165Z,-139.23
2022-10-11T04:25:39.484Z,-139.23
2022-10-11T04:28:07.931Z,-139.23
2022-10-11T04:30:35.517Z,-139.23
2022-10-11T04:33:04.387Z,-139.23
2022-10-11T04:35:33.004Z,-139.23
2022-10-11T04:38:00.474Z,-139.23
2022-10-11T04:40:27.952Z,-139.23
2022-10-11T04:42:55.512Z,-139.23
2022-10-11T04:45:22.958Z,-139.23
2022-10-11T04:47:50.438Z,-139.23
2022-10-11T04:50:19.481Z,-139.23
2022-10-11T04:52:46.943Z,-139.23
2022-10-11T04:55:15.155Z,-139.23
2022-10-11T04:57:42.624Z,-139.23
2022-10-11T05:00:11.471Z,-139.23
2022-10-11T05:02:38.929Z,-139.23
2022-10-11T05:05:07.497Z,-139.23
2022-10-11T05:07:36.284Z,-139.23
2022-10-11T05:10:04.130Z,-139.23
2022-10-11T05:12:31.557Z,-139.23
2022-10-11T05:14:59.495Z,-139.23
2022-10-11T05:17:26.977Z,-139.23
2022-10-11T05:19:54.415Z,-139.23
2022-10-11T05:22:21.896Z,-139.23
2022-10-11T05:24:50.696Z,-139.23
2022-10-11T05:27:18.147Z,-139.23
2022-10-11T05:29:45.691Z,-139.23
2022-10-11T05:32:13.483Z,-139.23
2022-10-11T05:34:41.112Z,-139.23
2022-10-11T05:37:08.531Z,-139.23
2022-10-11T05:40:35.832Z,-139.23
2022-10-11T05:44:02.408Z,-139.23
2022-10-11T05:47:28.266Z,-139.23
2022-10-11T05:50:54.985Z,-139.23
2022-10-11T05:54:21.044Z,-139.23
2022-10-11T05:56:49.883Z,-139.23
2022-10-11T05:59:17.325Z,-139.23
2022-10-11T06:01:44.984Z,-139.23
2022-10-11T06:05:10.669Z,-139.23
2022-10-11T06:08:36.673Z,-139.23
2022-10-11T06:12:09.761Z,-139.23
2022-10-11T06:15:35.970Z,-139.23
2022-10-11T06:19:01.885Z,-139.23
2022-10-11T06:21:29.328Z,-139.23
2022-10-11T06:24:01.332Z,-139.23
2022-10-11T06:27:23.635Z,-139.23
2022-10-11T06:30:07.270Z,5.77
2022-10-11T06:33:31.123Z,-139.23
2022-10-11T06:36:49.123Z,-139.23
2022-10-11T06:40:15.193Z,-139.23
2022-10-11T06:43:06.967Z,-139.23
2022-10-11T06:46:33.245Z,-139.23
2022-10-11T06:49:04.165Z,5.77
2022-10-11T06:51:40.185Z,-139.23
2022-10-11T06:54:45.025Z,-139.23
2022-10-11T06:57:57.920Z,-139.23
2022-10-11T07:00:26.274Z,-139.23
2022-10-11T07:02:53.800Z,-139.23
2022-10-11T07:05:23.551Z,-139.23
2022-10-11T07:08:11.396Z,-139.23
2022-10-11T07:10:49.467Z,-139.23
2022-10-11T07:14:16.782Z,-139.23
2022-10-11T07:16:56.051Z,-139.23
2022-10-11T07:20:11.557Z,-139.23
2022-10-11T07:22:51.997Z,-139.23
2022-10-11T07:25:41.002Z,-139.23
2022-10-11T07:28:35.713Z,-139.23
2022-10-11T07:31:12.640Z,-139.23
2022-10-11T07:33:57.766Z,-139.23
2022-10-11T07:36:47.801Z,-139.23
2022-10-11T07:39:19.710Z,-139.23
2022-10-11T07:42:12.316Z,-139.23
2022-10-11T07:45:31.984Z,-139.23
2022-10-11T07:48:35.381Z,-139.23
2022-10-11T07:51:43.577Z,-139.23
2022-10-11T07:54:20.720Z,-139.23
2022-10-11T07:57:05.312Z,-139.23
2022-10-11T07:59:50.365Z,-139.23
2022-10-11T08:02:21.627Z,-139.23
2022-10-11T08:05:02.514Z,-139.23
2022-10-11T08:08:26.261Z,-139.23
2022-10-11T08:11:20.470Z,-139.23
2022-10-11T08:13:48.107Z,-139.23
2022-10-11T08:17:15.787Z,-139.23
2022-10-11T08:20:23.587Z,-139.23
2022-10-11T08:22:53.135Z,-139.23
2022-10-11T08:25:20.941Z,-139.23
2022-10-11T08:27:48.420Z,-139.23
2022-10-11T08:30:29.196Z,-139.23
2022-10-11T08:32:58.523Z,-139.23
2022-10-11T08:35:26.096Z,-139.23
2022-10-11T08:37:53.584Z,-139.23
2022-10-11T08:40:23.375Z,-139.23
2022-10-11T08:42:58.940Z,-139.23
2022-10-11T08:45:32.912Z,-139.23
2022-10-11T08:48:12.137Z,-139.23
2022-10-11T08:50:40.241Z,-139.23
2022-10-11T08:53:20.839Z,-139.23
2022-10-11T08:55:52.069Z,-139.23
2022-10-11T08:58:22.634Z,-139.23
2022-10-11T09:00:55.164Z,-139.23
2022-10-11T09:03:32.193Z,-139.23
2022-10-11T09:06:15.554Z,-139.23
2022-10-11T09:08:49.158Z,-139.23
2022-10-11T09:11:22.128Z,-139.23
2022-10-11T09:14:12.891Z,12.66
2022-10-11T09:16:54.893Z,12.74
2022-10-11T09:19:41.416Z,-139.23
2022-10-11T09:22:19.297Z,-139.23
2022-10-11T09:25:03.973Z,14.12
2022-10-11T09:28:01.116Z,14.89
2022-10-11T09:30:24.472Z,15.23
2022-10-11T09:32:59.581Z,15.71
2022-10-11T09:35:33.488Z,16.13
2022-10-11T09:38:05.456Z,16.14
2022-10-11T09:40:42.164Z,16.85
2022-10-11T09:43:10.207Z,17.33
2022-10-11T09:45:38.643Z,17.83
2022-10-11T09:48:08.280Z,18.10
2022-10-11T09:50:37.186Z,18.48
2022-10-11T09:53:07.557Z,19.48
2022-10-11T09:55:38.691Z,20.59
2022-10-11T09:58:24.855Z,21.58
2022-10-11T10:01:01.760Z,20.74
2022-10-11T10:03:35.262Z,20.94
2022-10-11T10:06:09.238Z,21.06
2022-10-11T10:08:37.564Z,21.71
2022-10-11T10:11:07.176Z,21.41
2022-10-11T10:13:44.237Z,20.86
2022-10-11T10:16:23.198Z,21.24
2022-10-11T10:18:53.301Z,20.52
2022-10-11T10:21:28.557Z,21.01
2022-10-11T10:23:57.547Z,21.88
2022-10-11T10:26:27.371Z,22.58
2022-10-11T10:29:18.460Z,23.31
2022-10-11T10:32:14.284Z,24.13
2022-10-11T10:34:53.692Z,23.57
2022-10-11T10:37:27.972Z,23.66
2022-10-11T10:39:59.582Z,21.49
2022-10-11T10:42:27.181Z,20.98
2022-10-11T10:44:58.754Z,19.87
2022-10-11T10:47:45.937Z,19.73
2022-10-11T10:50:19.723Z,19.55
2022-10-11T10:53:03.859Z,19.17
2022-10-11T10:55:38.958Z,18.43
2022-10-11T10:58:18.596Z,18.50
2022-10-11T11:00:49.798Z,18.85
2022-10-11T11:03:24.953Z,18.68
2022-10-11T11:06:00.835Z,18.93
2022-10-11T11:08:45.038Z,19.84
2022-10-11T11:11:31.352Z,19.54
2022-10-11T11:14:03.297Z,18.91
2022-10-11T11:16:40.069Z,19.22
2022-10-11T11:19:17.613Z,20.06
2022-10-11T11:21:52.841Z,20.46
2022-10-11T11:24:40.830Z,19.38
2022-10-11T11:27:18.572Z,19.34
2022-10-11T11:29:55.790Z,19.46
2022-10-11T11:32:39.508Z,19.25
2022-10-11T11:35:16.087Z,18.74
2022-10-11T11:37:47.397Z,18.56
2022-10-11T11:40:19.220Z,18.61
2022-10-11T11:42:51.176Z,19.61
2022-10-11T11:45:23.721Z,19.42
2022-10-11T11:48:00.569Z,19.37
2022-10-11T11:50:34.285Z,19.77
2022-10-11T11:53:07.614Z,20.08
2022-10-11T11:55:44.552Z,19.89
2022-10-11T11:58:28.819Z,20.23
2022-10-11T12:01:02.187Z,19.30
2022-10-11T12:03:39.310Z,18.94
2022-10-11T12:06:24.215Z,18.83
2022-10-11T12:09:03.343Z,19.19
2022-10-11T12:11:42.352Z,19.99
2022-10-11T12:14:24.770Z,20.53
2022-10-11T12:17:25.276Z,20.20
2022-10-11T12:20:15.512Z,20.90
2022-10-11T12:22:56.063Z,20.55
2022-10-11T12:25:44.052Z,20.27
2022-10-11T12:28:48.530Z,19.39
2022-10-11T12:31:24.845Z,19.83
2022-10-11T12:34:03.745Z,20.06
2022-10-11T12:36:39.475Z,19.84
2022-10-11T12:39:48.247Z,19.12
2022-10-11T12:42:31.614Z,19.64
2022-10-11T12:45:32.032Z,20.21
2022-10-11T12:48:12.432Z,22.66
2022-10-11T12:50:47.557Z,24.55
2022-10-11T12:53:28.348Z,22.62
2022-10-11T12:56:02.526Z,22.23
2022-10-11T12:58:38.390Z,22.61
2022-10-11T13:01:21.990Z,23.67
2022-10-11T13:04:00.724Z,23.13
2022-10-11T13:06:31.991Z,22.18
2022-10-11T13:09:06.008Z,21.98
2022-10-11T13:11:36.389Z,21.86
2022-10-11T13:14:10.583Z,21.87
2022-10-11T13:16:48.873Z,22.68
2022-10-11T13:19:18.496Z,22.03
2022-10-11T13:21:51.463Z,22.46
2022-10-11T13:24:20.438Z,22.67
2022-10-11T13:26:51.747Z,21.84
2022-10-11T13:29:26.020Z,20.93
2022-10-11T13:31:53.833Z,21.61
2022-10-11T13:34:23.623Z,23.43
2022-10-11T13:36:56.297Z,24.18
2022-10-11T13:39:31.313Z,24.99
2022-10-11T13:42:00.444Z,24.43
2022-10-11T13:44:28.089Z,23.81
2022-10-11T13:46:55.738Z,22.85
2022-10-11T13:49:37.024Z,23.38
2022-10-11T13:52:07.945Z,24.99
2022-10-11T13:54:54.923Z,26.08
2022-10-11T13:57:23.655Z,26.14
2022-10-11T13:59:51.336Z,25.76
2022-10-11T14:02:22.349Z,24.44
2022-10-11T14:04:51.369Z,23.54
2022-10-11T14:07:27.336Z,23.81
2022-10-11T14:09:55.760Z,22.95
2022-10-11T14:12:30.024Z,23.19
2022-10-11T14:14:58.052Z,23.74
2022-10-11T14:17:38.975Z,23.91
2022-10-11T14:20:16.644Z,23.25
2022-10-11T14:22:44.388Z,22.71
2022-10-11T14:25:12.373Z,23.29
2022-10-11T14:27:40.684Z,23.57
2022-10-11T14:30:31.202Z,23.47
2022-10-11T14:33:01.800Z,24.90
2022-10-11T14:35:33.148Z,26.72
2022-10-11T14:38:01.297Z,25.67
2022-10-11T14:40:31.464Z,24.43
2022-10-11T14:42:59.095Z,24.14
2022-10-11T14:45:26.785Z,23.53
2022-10-11T14:47:54.607Z,22.35
2022-10-11T14:50:32.395Z,22.22
2022-10-11T14:52:59.990Z,23.25
2022-10-11T14:55:27.523Z,24.93
2022-10-11T14:57:56.147Z,23.86
2022-10-11T15:00:27.123Z,24.69
2022-10-11T15:02:55.711Z,24.82
2022-10-11T15:05:28.693Z,24.17
2022-10-11T15:08:00.546Z,23.38
2022-10-11T15:10:30.374Z,22.79
2022-10-11T15:12:58.168Z,22.00
2022-10-11T15:15:27.562Z,22.43
2022-10-11T15:17:56.394Z,22.04
2022-10-11T15:20:27.328Z,21.28
2022-10-11T15:22:55.418Z,20.35
2022-10-11T15:25:24.834Z,20.87
2022-10-11T15:27:53.016Z,20.88
2022-10-11T15:30:23.397Z,21.36
2022-10-11T15:32:52.589Z,20.29
2022-10-11T15:35:21.558Z,19.65
2022-10-11T15:37:49.541Z,19.54
2022-10-11T15:40:21.851Z,18.41
2022-10-11T15:42:51.749Z,18.23
2022-10-11T15:45:21.147Z,17.39
2022-10-11T15:47:49.132Z,16.88
2022-10-11T15:50:24.292Z,15.54
2022-10-11T15:52:52.128Z,14.05
2022-10-11T15:55:19.718Z,12.93
2022-10-11T15:57:47.168Z,12.39
2022-10-11T16:00:21.360Z,11.94
2022-10-11T16:02:51.841Z,11.48
2022-10-11T16:05:19.829Z,11.25
2022-10-11T16:07:47.368Z,11.06
2022-10-11T16:10:15.549Z,10.86
2022-10-11T16:12:43.070Z,10.66
2022-10-11T16:15:11.386Z,10.55
2022-10-11T16:17:40.277Z,10.50
2022-10-11T16:20:08.901Z,10.43
2022-10-11T16:22:36.876Z,10.37
2022-10-11T16:25:05.962Z,10.28
2022-10-11T16:27:33.711Z,10.20
2022-10-11T16:30:01.867Z,10.07
2022-10-11T16:32:29.436Z,9.92
2022-10-11T16:34:58.222Z,9.77
2022-10-11T16:37:25.653Z,9.66
2022-10-11T16:39:53.122Z,9.52
2022-10-11T16:42:20.836Z,9.39
2022-10-11T16:44:48.324Z,9.23
2022-10-11T16:47:16.603Z,9.06
2022-10-11T16:49:44.099Z,8.92
2022-10-11T16:52:14.072Z,8.78
2022-10-11T16:54:44.268Z,8.54
2022-10-11T16:57:12.523Z,8.29
2022-10-11T16:59:40.087Z,8.11
2022-10-11T17:02:09.739Z,8.09
2022-10-11T17:04:37.171Z,8.05
2022-10-11T17:07:04.647Z,8.15
2022-10-11T17:09:33.451Z,8.08
2022-10-11T17:12:02.269Z,7.94
2022-10-11T17:14:29.724Z,7.58
2022-10-11T17:16:57.153Z,7.45
2022-10-11T17:19:24.622Z,7.49
2022-10-11T17:21:52.078Z,7.49
2022-10-11T17:24:19.641Z,7.48
2022-10-11T17:26:48.571Z,7.52
2022-10-11T17:29:17.205Z,7.46
2022-10-11T17:31:48.995Z,7.35
2022-10-11T17:34:17.775Z,7.29
2022-10-11T17:36:45.345Z,7.03
2022-10-11T17:39:15.584Z,6.91
2022-10-11T17:41:43.322Z,6.84
2022-10-11T17:44:12.693Z,6.76
2022-10-11T17:46:40.910Z,6.77
2022-10-11T17:49:09.026Z,6.85
2022-10-11T17:51:37.671Z,6.93
2022-10-11T17:54:06.037Z,6.86
2022-10-11T17:56:38.023Z,6.75
2022-10-11T17:59:06.482Z,6.61
2022-10-11T18:01:35.972Z,6.68
2022-10-11T18:04:05.859Z,6.82
2022-10-11T18:06:38.497Z,6.66
2022-10-11T18:09:06.285Z,6.62
2022-10-11T18:11:34.133Z,6.74
2022-10-11T18:14:01.973Z,6.82
2022-10-11T18:16:31.692Z,6.72
2022-10-11T18:19:03.244Z,6.66
2022-10-11T18:21:34.406Z,6.51
2022-10-11T18:24:04.212Z,6.17
2022-10-11T18:26:31.703Z,5.87
2022-10-11T18:28:59.653Z,5.82
2022-10-11T18:31:29.352Z,5.71
2022-10-11T18:33:57.151Z,5.47
2022-10-11T18:36:28.764Z,5.37
2022-10-11T18:38:58.449Z,5.35
2022-10-11T18:41:30.467Z,5.56
2022-10-11T18:44:00.076Z,5.66
2022-10-11T18:46:28.261Z,5.65
2022-10-11T18:48:58.116Z,5.65
2022-10-11T18:51:30.008Z,5.56
2022-10-11T18:53:58.568Z,5.62
2022-10-11T18:56:27.819Z,5.47
2022-10-11T18:58:56.876Z,5.09
2022-10-11T19:01:26.389Z,5.14
2022-10-11T19:03:57.326Z,5.18
2022-10-11T19:06:28.748Z,5.20
2022-10-11T19:09:00.191Z,5.31
2022-10-11T19:11:29.372Z,5.30
2022-10-11T19:13:58.115Z,5.37
2022-10-11T19:16:26.515Z,5.40
2022-10-11T19:18:54.517Z,5.26
2022-10-11T19:21:22.860Z,5.20
2022-10-11T19:23:52.155Z,5.15
2022-10-11T19:26:21.179Z,4.95
2022-10-11T19:28:49.442Z,4.66
2022-10-11T19:31:17.374Z,4.56
2022-10-11T19:33:47.949Z,4.40
2022-10-11T19:36:15.444Z,4.46
2022-10-11T19:38:45.271Z,4.44
2022-10-11T19:41:15.289Z,4.59
2022-10-11T19:43:43.617Z,4.71
2022-10-11T19:46:20.321Z,4.88
2022-10-11T19:48:52.123Z,4.91
2022-10-11T19:51:21.774Z,4.91
2022-10-11T19:53:50.706Z,4.96
2022-10-11T19:56:20.069Z,4.91
2022-10-11T19:58:47.611Z,4.91
2022-10-11T20:01:18.344Z,4.69
2022-10-11T20:03:48.629Z,4.41
2022-10-11T20:06:16.369Z,4.42
2022-10-11T20:08:45.271Z,4.31
2022-10-11T20:11:13.679Z,4.47
2022-10-11T20:13:45.100Z,4.52
2022-10-11T20:16:15.138Z,4.62
2022-10-11T20:18:43.705Z,4.52
2022-10-11T20:21:13.725Z,4.44
2022-10-11T20:26:17.060Z,4.46
2022-10-11T20:28:46.208Z,4.46
2022-10-11T20:31:16.011Z,4.51
2022-10-11T20:33:43.594Z,4.32
2022-10-11T20:36:12.730Z,4.36
2022-10-11T20:38:42.362Z,4.34
2022-10-11T20:41:12.457Z,4.39
2022-10-11T20:43:42.247Z,4.28
2022-10-11T20:46:13.391Z,4.46
2022-10-11T20:48:42.419Z,4.60
2022-10-11T20:51:10.981Z,4.47
2022-10-11T20:53:39.416Z,-139.23
2022-10-11T20:56:10.800Z,-139.23
2022-10-11T20:58:38.617Z,4.30
2022-10-11T21:01:11.420Z,4.24
2022-10-11T21:03:39.323Z,4.20
2022-10-11T21:06:07.325Z,4.35
2022-10-11T21:08:35.634Z,4.35
2022-10-11T21:11:03.459Z,4.43
2022-10-11T21:13:31.179Z,4.55
2022-10-11T21:16:04.482Z,4.49
2022-10-11T21:18:33.418Z,4.41
2022-10-11T21:21:05.990Z,4.46
2022-10-11T21:23:33.496Z,4.39
2022-10-11T21:26:02.156Z,4.22
2022-10-11T21:28:30.179Z,4.12
2022-10-11T21:31:04.260Z,3.95
2022-10-11T21:33:34.262Z,3.83
2022-10-11T21:36:04.656Z,3.90
2022-10-11T21:38:32.131Z,3.74
2022-10-11T21:40:59.587Z,3.77
2022-10-11T21:43:27.040Z,3.60
2022-10-11T21:45:54.458Z,3.50
2022-10-11T21:48:21.901Z,3.43
2022-10-11T21:50:54.504Z,3.31
2022-10-11T21:53:22.320Z,3.27
2022-10-11T21:55:49.773Z,3.28
2022-10-11T21:58:17.196Z,3.36
2022-10-11T22:00:47.227Z,3.45
2022-10-11T22:03:14.663Z,3.36
2022-10-11T22:05:44.296Z,3.25
2022-10-11T22:08:13.683Z,3.11
2022-10-11T22:10:43.719Z,3.26
2022-10-11T22:13:11.225Z,3.23
2022-10-11T22:15:38.704Z,3.04
2022-10-11T22:18:06.451Z,3.17
2022-10-11T22:20:34.153Z,3.13
2022-10-11T22:23:01.947Z,3.02
2022-10-11T22:25:30.726Z,3.04
2022-10-11T22:27:58.154Z,3.05
2022-10-11T22:30:25.623Z,-139.23
2022-10-11T22:32:53.076Z,-139.23
2022-10-11T22:35:20.584Z,-139.23
2022-10-11T22:38:46.599Z,-139.23
2022-10-11T22:42:13.883Z,-139.23
2022-10-11T22:45:39.943Z,-139.23
2022-10-11T22:49:05.957Z,-139.23
2022-10-11T22:52:31.999Z,-139.23
2022-10-11T22:55:58.159Z,-139.23
2022-10-11T22:59:25.583Z,-139.23
2022-10-11T23:02:51.545Z,-139.23
2022-10-11T23:06:17.598Z,-139.23
2022-10-11T23:09:43.572Z,-139.23
2022-10-11T23:13:09.532Z,-139.23
2022-10-11T23:16:39.787Z,-139.23
2022-10-11T23:20:05.186Z,-139.23
2022-10-11T23:23:31.261Z,-139.23
2022-10-11T23:26:51.361Z,-139.23
2022-10-11T23:30:17.099Z,-139.23
2022-10-11T23:33:35.838Z,-139.23
2022-10-11T23:36:56.869Z,-139.23
2022-10-11T23:39:33.746Z,-139.23
2022-10-11T23:42:59.935Z,-139.23
2022-10-11T23:46:26.271Z,-139.23
2022-10-11T23:49:53.614Z,-139.23
2022-10-11T23:53:19.575Z,-139.23
2022-10-11T23:56:45.527Z,-139.23
